DAL1489 KATL-KFLL
Flight info
| Callsign | DAL1489 |
|---|---|
| Flight time | N/A |
| Altitude | 31000 |
| Route | SMLTZ3 WALET ZPLEN TEEKY3 |
| Aircraft | A321/M-L/N |
Departure
| Time | 2026-05-03 23:36 |
|---|---|
| Airport | Hartsfield Jackson Atlanta International Airport (KATL) |
Arrival
| Time | N/A |
|---|---|
| Airport | Fort Lauderdale Hollywood International Airport (KFLL) |
| Time | Latitude | Longitude | Altitude | Speed | Heading |
|---|---|---|---|---|---|
| 2026-05-03 22:57 | 33.63728 | -84.42518 | 1029 ft | 0 kts | 270° |
| 2026-05-03 23:22 | 33.63728 | -84.42517 | 1029 ft | 0 kts | 270° |
| 2026-05-03 23:22 | 33.63728 | -84.42503 | 1029 ft | 2 kts | 270° |
| 2026-05-03 23:22 | 33.63728 | -84.42486 | 1029 ft | 2 kts | 270° |
| 2026-05-03 23:23 | 33.63728 | -84.42467 | 1029 ft | 2 kts | 270° |
| 2026-05-03 23:23 | 33.63728 | -84.42456 | 1029 ft | 2 kts | 269° |
| 2026-05-03 23:23 | 33.63732 | -84.42439 | 1029 ft | 2 kts | 238° |
| 2026-05-03 23:23 | 33.63742 | -84.42426 | 1029 ft | 2 kts | 216° |
| 2026-05-03 23:24 | 33.63755 | -84.42417 | 1029 ft | 2 kts | 193° |
| 2026-05-03 23:24 | 33.63764 | -84.42416 | 1029 ft | 1 kts | 179° |
| 2026-05-03 23:24 | 33.63769 | -84.42416 | 1029 ft | 0 kts | 180° |
| 2026-05-03 23:28 | 33.63766 | -84.42416 | 1029 ft | 1 kts | 181° |
| 2026-05-03 23:28 | 33.63748 | -84.42416 | 1029 ft | 3 kts | 181° |
| 2026-05-03 23:28 | 33.63715 | -84.42417 | 1029 ft | 6 kts | 181° |
| 2026-05-03 23:29 | 33.63659 | -84.42371 | 1029 ft | 9 kts | 108° |
| 2026-05-03 23:29 | 33.63655 | -84.42311 | 1029 ft | 11 kts | 90° |
| 2026-05-03 23:29 | 33.63654 | -84.42204 | 1029 ft | 14 kts | 90° |
| 2026-05-03 23:29 | 33.63655 | -84.42078 | 1029 ft | 16 kts | 90° |
| 2026-05-03 23:30 | 33.63654 | -84.41937 | 1029 ft | 17 kts | 90° |
| 2026-05-03 23:30 | 33.63655 | -84.41782 | 1029 ft | 19 kts | 90° |
| 2026-05-03 23:30 | 33.63655 | -84.41618 | 1029 ft | 19 kts | 90° |
| 2026-05-03 23:30 | 33.63655 | -84.41457 | 1029 ft | 19 kts | 90° |
| 2026-05-03 23:31 | 33.63654 | -84.41286 | 1029 ft | 20 kts | 90° |
| 2026-05-03 23:31 | 33.63655 | -84.41122 | 1029 ft | 13 kts | 90° |
| 2026-05-03 23:31 | 33.63633 | -84.41045 | 1029 ft | 8 kts | 144° |
| 2026-05-03 23:31 | 33.63627 | -84.41042 | 1029 ft | 0 kts | 150° |
| 2026-05-03 23:32 | 33.63619 | -84.41038 | 1029 ft | 2 kts | 166° |
| 2026-05-03 23:32 | 33.63597 | -84.41025 | 1029 ft | 4 kts | 137° |
| 2026-05-03 23:33 | 33.63585 | -84.40995 | 1029 ft | 6 kts | 103° |
| 2026-05-03 23:33 | 33.63580 | -84.40953 | 1029 ft | 7 kts | 105° |
| 2026-05-03 23:33 | 33.63571 | -84.40934 | 1029 ft | 0 kts | 125° |
| 2026-05-03 23:33 | 33.63568 | -84.40928 | 1029 ft | 1 kts | 129° |
| 2026-05-03 23:34 | 33.63560 | -84.40918 | 1029 ft | 2 kts | 139° |
| 2026-05-03 23:34 | 33.63538 | -84.40910 | 1029 ft | 3 kts | 174° |
| 2026-05-03 23:34 | 33.63510 | -84.40910 | 1029 ft | 4 kts | 192° |
| 2026-05-03 23:34 | 33.63480 | -84.40939 | 1029 ft | 8 kts | 244° |
| 2026-05-03 23:35 | 33.63472 | -84.41088 | 1029 ft | 38 kts | 271° |
| 2026-05-03 23:35 | 33.63472 | -84.41707 | 1029 ft | 107 kts | 270° |
| 2026-05-03 23:35 | 33.63471 | -84.42838 | 1030 ft | 163 kts | 271° |
| 2026-05-03 23:35 | 33.63472 | -84.44270 | 1496 ft | 173 kts | 270° |
| 2026-05-03 23:36 | 33.63459 | -84.45699 | 2132 ft | 176 kts | 271° |